York, New York
Current Conditions -  °F | °C
As of 1:54 AM on Thursday 18 Dec 2014 (Local Time) from KROC Reporting Station
Overcast Overcast  
Wind Chill: -7°   Ceiling: 1900
Heat Index: -1°   Visibility: 9mi
Dew Point: -4°   Wind: 15mph
Humidity: 79%   Direction: 270°W
Pressure: 29.98"   Gusts: NA
Location:  42.87°N, 77.89°W
Report Text: KROC 180654Z 27013KT 9SM OVC019 M01/M04 A2998 RMK AO2 SNE51 SLP160 P0000 T10061039
Loading
Personal Weather Stations






























Interactive Weather Map New forecast layout! Learn more

10-Day Weather Forecast

Advertisements
Track Severe Weather on mobile